Time;durP1;ratioP1;P1;durP2;ratioP2;P2;SDS_P1;SDS_P2;PMS_P1;PMS_P2;Temp;Humidity;BMP_temperature;BMP_pressure;BME280_temperature;BME280_humidity;BME280_pressure;Samples;Min_cycle;Max_cycle;Signal;HPM_P1;HPM_P2
2021/06/10 00:00:49;;;;;;;10.90;10.03;;;19.00;99.90;;;;;;5084134;28;20781;-38
2021/06/10 00:03:16;;;;;;;11.57;10.60;;;18.90;99.90;;;;;;5079987;28;20215;-38
2021/06/10 00:05:42;;;;;;;11.53;10.33;;;18.90;99.90;;;;;;5087936;28;20510;-38
2021/06/10 00:08:10;;;;;;;10.50;9.57;;;18.90;99.90;;;;;;5088081;28;20475;-38
2021/06/10 00:10:38;;;;;;;10.53;9.63;;;18.80;99.90;;;;;;5087301;28;20411;-38
2021/06/10 00:13:04;;;;;;;10.20;9.30;;;18.80;99.90;;;;;;5077024;28;20428;-37
2021/06/10 00:15:33;;;;;;;12.83;11.73;;;18.80;99.90;;;;;;5080264;28;20414;-38
2021/06/10 00:18:00;;;;;;;12.47;11.07;;;18.80;99.90;;;;;;5080545;28;20846;-37
2021/06/10 00:20:28;;;;;;;13.10;11.80;;;18.80;99.90;;;;;;5086927;28;20491;-38
2021/06/10 00:22:55;;;;;;;12.50;11.50;;;18.70;99.90;;;;;;5087606;28;20466;-38
2021/06/10 00:25:22;;;;;;;12.90;11.87;;;18.60;99.90;;;;;;5087794;28;20423;-37
2021/06/10 00:27:48;;;;;;;13.27;12.00;;;18.60;99.90;;;;;;5085185;28;20437;-38
2021/06/10 00:30:17;;;;;;;12.70;11.60;;;18.50;99.90;;;;;;5081856;28;20437;-37
2021/06/10 00:32:44;;;;;;;11.93;10.50;;;18.40;99.90;;;;;;5064775;28;20966;-38
2021/06/10 00:35:11;;;;;;;12.23;11.17;;;18.40;99.90;;;;;;5087255;28;20464;-37
2021/06/10 00:37:36;;;;;;;13.17;11.77;;;18.30;99.90;;;;;;5087277;28;20419;-38
2021/06/10 00:40:06;;;;;;;12.30;11.20;;;18.30;99.90;;;;;;5085769;28;20491;-38
2021/06/10 00:42:32;;;;;;;12.07;11.07;;;18.20;99.90;;;;;;5086248;28;20220;-37
2021/06/10 00:44:57;;;;;;;12.37;11.20;;;18.10;99.90;;;;;;5079815;28;20422;-37
2021/06/10 00:47:23;;;;;;;11.30;10.40;;;18.10;99.90;;;;;;5086047;28;20410;-37
2021/06/10 00:49:49;;;;;;;11.47;10.50;;;18.00;99.90;;;;;;5068253;28;20198;-37
2021/06/10 00:52:15;;;;;;;13.07;11.70;;;18.00;99.90;;;;;;5068833;28;20180;-37
2021/06/10 00:54:40;;;;;;;12.37;11.27;;;18.00;99.90;;;;;;5068754;28;20423;-38
2021/06/10 00:57:07;;;;;;;12.17;11.10;;;17.90;99.90;;;;;;5086187;28;20590;-37
2021/06/10 00:59:33;;;;;;;11.20;10.20;;;17.90;99.90;;;;;;5078480;28;20188;-37
2021/06/10 01:01:59;;;;;;;13.63;12.33;;;17.80;99.90;;;;;;5081095;28;20505;-37
2021/06/10 01:04:26;;;;;;;12.50;11.50;;;17.80;99.90;;;;;;5086500;28;20421;-37
2021/06/10 01:07:00;;;;;;;11.30;10.40;;;17.70;99.90;;;;;;5087029;28;20729;-37
2021/06/10 01:10:22;;;;;;;12.40;11.30;;;17.70;99.90;;;;;;5086239;28;20417;-38
2021/06/10 01:12:51;;;;;;;12.67;11.57;;;17.60;99.90;;;;;;5022300;28;20429;-37
2021/06/10 01:15:18;;;;;;;14.47;13.20;;;17.50;99.90;;;;;;5072620;28;20415;-38
2021/06/10 01:17:47;;;;;;;14.63;13.33;;;17.50;99.90;;;;;;5084571;28;20580;-37
2021/06/10 01:20:26;;;;;;;13.37;12.17;;;17.40;99.90;;;;;;5085896;28;20425;-38
2021/06/10 01:22:57;;;;;;;13.60;12.20;;;17.30;99.90;;;;;;5086758;28;20450;-38
2021/06/10 01:25:45;;;;;;;13.47;12.23;;;17.40;99.90;;;;;;5086278;28;20421;-37
2021/06/10 01:28:28;;;;;;;14.70;13.43;;;17.30;99.90;;;;;;5079340;28;20429;-37
2021/06/10 01:30:58;;;;;;;12.53;11.33;;;17.30;99.90;;;;;;5062098;28;20409;-38
2021/06/10 01:33:31;;;;;;;14.00;12.60;;;17.40;99.90;;;;;;5086160;28;20819;-37
2021/06/10 01:36:00;;;;;;;14.10;12.47;;;17.40;99.90;;;;;;5086227;28;20441;-37
2021/06/10 01:38:26;;;;;;;14.77;13.27;;;17.30;99.90;;;;;;5068682;28;20607;-38
2021/06/10 01:40:54;;;;;;;14.40;13.20;;;17.40;99.90;;;;;;5084726;28;20421;-37
2021/06/10 01:43:21;;;;;;;15.93;14.43;;;17.30;99.90;;;;;;5079358;28;20467;-37
2021/06/10 01:45:49;;;;;;;18.13;16.43;;;17.30;99.90;;;;;;5085554;28;20442;-37
2021/06/10 01:48:17;;;;;;;15.67;14.37;;;17.30;99.90;;;;;;5081626;28;20427;-38
2021/06/10 01:50:45;;;;;;;16.00;14.70;;;17.30;99.90;;;;;;5085659;28;20799;-37
2021/06/10 01:53:14;;;;;;;15.60;14.30;;;17.30;99.90;;;;;;5086021;28;20521;-38
2021/06/10 01:55:40;;;;;;;17.17;15.50;;;17.30;99.90;;;;;;5086336;28;20426;-37
2021/06/10 01:58:08;;;;;;;14.73;13.40;;;17.20;99.90;;;;;;5085349;28;20422;-38
2021/06/10 02:00:35;;;;;;;14.50;13.10;;;17.20;99.90;;;;;;5075862;28;20406;-37
2021/06/10 02:03:02;;;;;;;14.50;13.20;;;17.20;99.90;;;;;;5083041;28;20458;-37
2021/06/10 02:05:28;;;;;;;18.80;14.13;;;17.20;99.90;;;;;;5086478;28;21008;-38
2021/06/10 02:07:55;;;;;;;14.87;13.57;;;17.20;99.90;;;;;;5086000;28;20503;-37
2021/06/10 02:10:24;;;;;;;15.20;13.90;;;17.20;99.90;;;;;;5085593;28;20427;-38
2021/06/10 02:12:50;;;;;;;14.90;13.60;;;17.10;99.90;;;;;;5084958;28;20434;-38
2021/06/10 02:15:18;;;;;;;16.17;14.57;;;17.10;99.90;;;;;;5076424;28;20544;-37
2021/06/10 02:17:45;;;;;;;14.17;12.87;;;17.00;99.90;;;;;;5085312;28;20418;-38
2021/06/10 02:20:15;;;;;;;15.67;14.27;;;16.90;99.90;;;;;;5085082;28;20418;-37
2021/06/10 02:22:41;;;;;;;14.73;13.33;;;16.90;99.90;;;;;;5067899;28;20466;-37
2021/06/10 02:25:07;;;;;;;15.47;13.93;;;17.00;99.90;;;;;;5067801;28;20492;-37
2021/06/10 02:27:33;;;;;;;14.90;13.53;;;17.00;99.90;;;;;;5085477;28;20176;-37
2021/06/10 02:29:59;;;;;;;13.20;12.00;;;16.90;99.90;;;;;;5075349;28;20948;-37
2021/06/10 02:32:25;;;;;;;15.23;13.87;;;16.80;99.90;;;;;;5079761;28;20181;-38
2021/06/10 02:34:51;;;;;;;14.30;13.07;;;16.70;99.90;;;;;;5083362;28;20387;-37
2021/06/10 02:37:18;;;;;;;14.80;13.50;;;16.70;99.90;;;;;;5086298;28;20182;-37
2021/06/10 02:39:46;;;;;;;14.10;12.80;;;16.70;99.90;;;;;;5086692;28;20414;-38
2021/06/10 02:42:14;;;;;;;15.37;13.97;;;16.70;99.90;;;;;;5071564;28;20466;-38
2021/06/10 02:44:45;;;;;;;15.03;13.73;;;16.70;99.90;;;;;;5084067;28;20438;-37
2021/06/10 02:47:12;;;;;;;15.57;14.17;;;16.70;99.90;;;;;;5082390;28;20813;-38
2021/06/10 02:49:43;;;;;;;15.90;14.50;;;16.70;99.90;;;;;;5088121;28;20444;-37
2021/06/10 02:52:10;;;;;;;15.10;13.47;;;16.90;99.90;;;;;;5089539;28;20463;-37
2021/06/10 02:54:36;;;;;;;15.50;14.10;;;16.80;99.90;;;;;;5075820;28;20423;-37
2021/06/10 02:57:04;;;;;;;16.13;14.63;;;16.90;99.90;;;;;;5071015;28;20476;-37
2021/06/10 02:59:31;;;;;;;17.20;15.60;;;16.90;99.90;;;;;;5083086;28;20192;-37
2021/06/10 03:01:57;;;;;;;16.10;14.70;;;16.90;99.90;;;;;;5084378;28;20573;-38
2021/06/10 03:04:23;;;;;;;17.47;15.87;;;16.90;99.90;;;;;;5089294;28;20510;-37
2021/06/10 03:06:50;;;;;;;17.70;16.13;;;16.90;99.90;;;;;;5071147;28;20279;-37
2021/06/10 03:09:17;;;;;;;17.40;15.70;;;16.80;99.90;;;;;;5088145;28;20188;-38
2021/06/10 03:11:44;;;;;;;18.63;16.83;;;16.70;99.90;;;;;;5089222;28;20419;-38
2021/06/10 03:14:11;;;;;;;19.07;17.37;;;16.60;99.90;;;;;;5084950;28;20987;-38
2021/06/10 03:16:39;;;;;;;19.43;17.73;;;16.60;99.90;;;;;;5086982;28;20415;-38
2021/06/10 03:19:05;;;;;;;21.53;19.43;;;16.50;99.90;;;;;;5085762;28;20426;-38
2021/06/10 03:21:32;;;;;;;18.50;16.70;;;16.60;99.90;;;;;;5088990;28;20949;-38
2021/06/10 03:23:58;;;;;;;20.63;18.57;;;16.50;99.90;;;;;;5088610;28;20456;-38
2021/06/10 03:26:25;;;;;;;19.80;17.80;;;16.50;99.90;;;;;;5089060;28;20461;-38
2021/06/10 03:28:52;;;;;;;21.07;19.13;;;16.60;99.90;;;;;;5080281;28;20423;-38
2021/06/10 03:31:20;;;;;;;19.90;17.90;;;16.50;99.90;;;;;;5085341;28;20409;-37
2021/06/10 03:33:47;;;;;;;20.90;19.00;;;16.50;99.90;;;;;;5084245;28;20414;-37
2021/06/10 03:36:14;;;;;;;20.13;18.23;;;16.50;99.90;;;;;;5088527;28;20784;-38
2021/06/10 03:38:40;;;;;;;20.70;18.57;;;16.50;99.90;;;;;;5069747;28;20440;-38
2021/06/10 03:41:07;;;;;;;19.80;18.00;;;16.50;99.90;;;;;;5087202;28;20464;-37
2021/06/10 03:43:36;;;;;;;19.10;17.17;;;16.40;99.90;;;;;;5086435;28;20490;-37
2021/06/10 03:46:05;;;;;;;20.83;19.03;;;16.40;99.90;;;;;;5083146;28;20967;-38
2021/06/10 03:48:31;;;;;;;22.77;20.67;;;16.40;99.90;;;;;;5069391;28;20407;-38
2021/06/10 03:50:57;;;;;;;20.90;18.83;;;16.40;99.90;;;;;;5069046;28;20464;-38
2021/06/10 03:53:23;;;;;;;22.40;20.17;;;16.40;99.90;;;;;;5069972;28;20209;-37
2021/06/10 03:55:49;;;;;;;23.70;21.40;;;16.30;99.90;;;;;;5088410;28;20197;-38
2021/06/10 03:58:14;;;;;;;21.40;19.30;;;16.40;99.90;;;;;;5087551;28;20185;-37
2021/06/10 04:00:40;;;;;;;21.47;19.43;;;16.30;99.90;;;;;;5082029;28;20192;-38
2021/06/10 04:03:05;;;;;;;21.43;19.33;;;16.40;99.90;;;;;;5069985;28;20291;-37
2021/06/10 04:05:31;;;;;;;21.00;19.10;;;16.50;99.90;;;;;;5087711;28;20176;-38
2021/06/10 04:07:58;;;;;;;22.53;20.33;;;16.50;99.90;;;;;;5088048;28;20180;-37
2021/06/10 04:10:24;;;;;;;20.60;18.60;;;16.50;99.90;;;;;;5087282;28;20501;-37
2021/06/10 04:12:50;;;;;;;22.67;20.57;;;16.50;99.90;;;;;;5088135;28;20453;-38
2021/06/10 04:15:17;;;;;;;22.93;20.63;;;16.50;99.90;;;;;;5074480;28;20442;-37
2021/06/10 04:17:44;;;;;;;23.87;21.40;;;16.50;99.90;;;;;;5078004;28;20419;-38
2021/06/10 04:20:11;;;;;;;24.60;22.20;;;16.50;99.90;;;;;;5083506;28;20497;-38
2021/06/10 04:22:37;;;;;;;25.33;22.90;;;16.50;99.90;;;;;;5069644;28;20541;-38
2021/06/10 04:25:04;;;;;;;26.07;23.27;;;16.50;99.90;;;;;;5087573;28;20509;-38
2021/06/10 04:27:30;;;;;;;24.90;22.50;;;16.60;99.90;;;;;;5087842;28;20418;-38
2021/06/10 04:29:56;;;;;;;27.13;24.33;;;16.50;99.90;;;;;;5085411;28;20509;-38
2021/06/10 04:32:21;;;;;;;26.93;24.00;;;16.60;99.90;;;;;;5081986;28;20187;-38
2021/06/10 04:34:47;;;;;;;26.73;24.10;;;16.60;99.90;;;;;;5086342;28;20223;-38
2021/06/10 04:37:13;;;;;;;26.57;23.97;;;16.70;99.90;;;;;;5087315;28;20193;-38
2021/06/10 04:39:38;;;;;;;29.33;26.37;;;16.70;99.90;;;;;;5067371;28;20198;-38
2021/06/10 04:42:05;;;;;;;28.07;25.37;;;16.90;99.90;;;;;;5086887;28;20216;-38
2021/06/10 04:44:30;;;;;;;28.73;25.90;;;17.00;99.90;;;;;;5085922;28;20185;-38
2021/06/10 04:46:56;;;;;;;30.03;27.13;;;17.00;99.90;;;;;;5076473;28;20749;-38
2021/06/10 04:49:22;;;;;;;26.23;23.73;;;17.10;99.90;;;;;;5076023;28;20184;-38
2021/06/10 04:51:47;;;;;;;28.57;25.87;;;17.20;99.90;;;;;;5081467;28;20275;-37
2021/06/10 04:54:13;;;;;;;29.40;26.50;;;17.30;99.90;;;;;;5084858;28;20210;-38
2021/06/10 04:56:38;;;;;;;27.97;25.10;;;17.30;99.90;;;;;;5049129;28;20308;-38
2021/06/10 04:59:04;;;;;;;28.80;26.00;;;17.40;99.90;;;;;;5061356;28;20565;-38
2021/06/10 05:01:30;;;;;;;29.57;26.77;;;17.50;99.90;;;;;;5079725;28;20299;-38
2021/06/10 05:03:56;;;;;;;30.07;27.07;;;17.60;99.90;;;;;;5079724;28;20196;-38
2021/06/10 05:06:21;;;;;;;28.43;25.53;;;17.60;99.90;;;;;;5052099;28;20191;-38
2021/06/10 05:08:47;;;;;;;29.20;26.47;;;17.80;99.90;;;;;;5051182;28;20200;-38
2021/06/10 05:11:13;;;;;;;29.97;26.90;;;17.90;99.90;;;;;;5086780;28;20192;-38
2021/06/10 05:13:39;;;;;;;30.90;27.97;;;18.00;99.90;;;;;;5086163;28;20184;-38
2021/06/10 05:16:05;;;;;;;28.50;25.70;;;18.10;99.90;;;;;;5065610;28;20650;-38
2021/06/10 05:18:30;;;;;;;32.63;29.23;;;18.20;99.90;;;;;;5083085;28;20215;-38
2021/06/10 05:20:56;;;;;;;31.67;28.27;;;18.30;99.90;;;;;;5068183;28;20450;-38
2021/06/10 05:23:22;;;;;;;32.50;29.30;;;18.40;99.90;;;;;;5086504;28;20239;-39
2021/06/10 05:25:47;;;;;;;33.03;29.53;;;18.50;99.90;;;;;;5086643;28;20199;-38
2021/06/10 05:28:13;;;;;;;31.73;28.60;;;18.70;99.90;;;;;;5068569;28;20333;-38
2021/06/10 05:30:39;;;;;;;32.57;29.30;;;18.70;99.90;;;;;;5079129;28;20647;-38
2021/06/10 05:33:05;;;;;;;32.33;29.13;;;18.90;99.90;;;;;;5081752;28;20391;-38
2021/06/10 05:35:30;;;;;;;31.27;28.37;;;19.00;99.90;;;;;;5086189;28;20351;-38
2021/06/10 05:37:56;;;;;;;29.90;27.00;;;19.20;99.90;;;;;;5075542;28;20290;-38
2021/06/10 05:40:22;;;;;;;31.53;28.40;;;19.20;99.90;;;;;;5084049;28;20237;-38
2021/06/10 05:42:47;;;;;;;29.20;26.10;;;19.30;99.90;;;;;;5086481;28;20273;-38
2021/06/10 05:45:13;;;;;;;27.90;25.00;;;19.50;99.90;;;;;;5056447;28;20177;-39
2021/06/10 05:47:39;;;;;;;27.97;25.23;;;19.60;99.90;;;;;;5082652;28;20661;-38
2021/06/10 05:50:05;;;;;;;26.30;23.90;;;19.70;99.90;;;;;;5082258;28;20425;-38
2021/06/10 05:52:31;;;;;;;25.13;22.63;;;19.90;99.90;;;;;;5086190;28;20267;-39
2021/06/10 05:54:58;;;;;;;26.60;24.00;;;20.00;99.90;;;;;;5086539;28;20591;-39
2021/06/10 05:57:24;;;;;;;24.50;22.20;;;20.10;99.90;;;;;;5086236;28;20445;-38
2021/06/10 05:59:50;;;;;;;24.63;22.30;;;20.20;99.90;;;;;;5081820;28;20434;-38
2021/06/10 06:02:17;;;;;;;23.40;21.10;;;20.30;99.90;;;;;;5042506;28;20677;-38
2021/06/10 06:04:45;;;;;;;25.30;21.30;;;20.40;99.90;;;;;;5083571;28;20181;-38
2021/06/10 06:07:12;;;;;;;22.87;20.67;;;20.50;99.90;;;;;;5085945;28;20418;-38
2021/06/10 06:09:38;;;;;;;20.63;18.70;;;20.70;99.90;;;;;;5082191;28;20414;-38
2021/06/10 06:12:10;;;;;;;18.50;16.90;;;20.80;99.90;;;;;;5064393;28;20418;-38
2021/06/10 06:14:38;;;;;;;19.10;17.27;;;20.90;99.90;;;;;;5086711;28;20481;-38
2021/06/10 06:17:05;;;;;;;18.90;17.10;;;21.00;99.90;;;;;;5062761;28;20431;-38
2021/06/10 06:19:35;;;;;;;15.40;14.00;;;21.10;99.90;;;;;;5082999;28;20430;-38
2021/06/10 06:22:06;;;;;;;14.80;13.33;;;21.20;99.90;;;;;;5084485;28;20450;-38
2021/06/10 06:24:32;;;;;;;20.93;15.07;;;21.40;99.90;;;;;;5085571;28;20426;-38
2021/06/10 06:26:59;;;;;;;15.10;13.70;;;21.50;99.90;;;;;;5091083;28;20426;-37
2021/06/10 06:29:24;;;;;;;13.60;12.30;;;21.60;99.90;;;;;;5084305;28;20563;-37
2021/06/10 06:31:50;;;;;;;14.57;13.27;;;21.80;99.90;;;;;;5088563;28;20418;-38
2021/06/10 06:34:16;;;;;;;12.07;10.97;;;21.90;99.90;;;;;;5090802;28;20195;-38
2021/06/10 06:36:42;;;;;;;11.87;10.87;;;22.00;99.90;;;;;;5089715;28;20196;-38
2021/06/10 06:39:08;;;;;;;10.93;9.73;;;22.10;99.90;;;;;;5087835;28;20833;-38
2021/06/10 06:41:35;;;;;;;11.90;10.70;;;22.30;99.90;;;;;;5089538;28;20204;-38
2021/06/10 06:44:02;;;;;;;11.50;10.40;;;22.30;99.90;;;;;;5089012;28;20198;-38
2021/06/10 06:46:27;;;;;;;11.87;10.77;;;22.40;99.90;;;;;;5078513;28;20414;-38
2021/06/10 06:48:54;;;;;;;14.10;12.60;;;22.50;99.90;;;;;;5063999;28;20425;-38
2021/06/10 06:51:19;;;;;;;14.97;12.40;;;22.60;99.90;;;;;;5089475;28;20724;-38
2021/06/10 06:53:45;;;;;;;12.87;11.57;;;22.50;99.90;;;;;;5089294;28;20422;-38
2021/06/10 06:56:11;;;;;;;12.73;10.77;;;22.50;99.90;;;;;;5073246;28;20603;-38
2021/06/10 06:58:38;;;;;;;11.83;10.33;;;22.70;99.90;;;;;;5074137;28;20516;-38
2021/06/10 07:01:04;;;;;;;9.40;8.20;;;22.80;99.90;;;;;;5057053;28;20639;-38
2021/06/10 07:03:30;;;;;;;9.63;8.63;;;23.00;99.90;;;;;;5083806;28;21035;-38
2021/06/10 07:05:56;;;;;;;9.50;8.10;;;23.10;99.60;;;;;;5082444;28;20451;-38
2021/06/10 07:08:21;;;;;;;7.50;6.80;;;23.10;98.80;;;;;;5066913;28;20548;-38
2021/06/10 07:10:54;;;;;;;4.80;4.40;;;23.10;99.00;;;;;;5088318;28;20422;-38
2021/06/10 07:13:24;;;;;;;5.60;5.10;;;23.20;97.20;;;;;;5089040;28;20219;-38
2021/06/10 07:15:50;;;;;;;6.70;6.03;;;23.30;97.20;;;;;;5084146;28;20435;-38
2021/06/10 07:18:17;;;;;;;5.53;5.00;;;23.30;97.50;;;;;;5067229;28;20422;-38
2021/06/10 07:20:43;;;;;;;5.63;4.93;;;23.40;96.90;;;;;;5078954;28;20425;-38
2021/06/10 07:23:08;;;;;;;5.67;3.80;;;23.50;97.40;;;;;;5088681;28;20462;-38
2021/06/10 07:25:34;;;;;;;6.70;6.10;;;23.60;96.30;;;;;;5069195;28;20411;-38
2021/06/10 07:28:00;;;;;;;8.50;5.80;;;23.60;95.80;;;;;;5088962;28;20291;-38
2021/06/10 07:30:26;;;;;;;5.57;4.80;;;23.70;96.10;;;;;;5062014;28;20435;-38
2021/06/10 07:32:52;;;;;;;4.53;3.53;;;23.70;96.40;;;;;;5078392;28;20550;-38
2021/06/10 07:35:23;;;;;;;5.50;4.50;;;23.80;96.60;;;;;;5082359;28;20177;-38
2021/06/10 07:37:50;;;;;;;8.37;5.60;;;23.80;95.90;;;;;;5088103;28;20208;-38
2021/06/10 07:40:17;;;;;;;7.70;5.67;;;24.00;96.10;;;;;;5075561;28;20429;-38
2021/06/10 07:42:43;;;;;;;5.93;5.33;;;24.00;95.50;;;;;;5087156;28;20462;-38
2021/06/10 07:45:09;;;;;;;5.87;5.10;;;24.10;95.70;;;;;;5087815;28;20504;-38
2021/06/10 07:47:35;;;;;;;7.47;5.40;;;24.10;96.50;;;;;;5082273;28;20184;-38
2021/06/10 07:50:02;;;;;;;6.20;5.60;;;24.20;96.30;;;;;;5086667;28;20471;-38
2021/06/10 07:52:28;;;;;;;6.83;4.93;;;24.20;96.40;;;;;;5088209;28;20790;-38
2021/06/10 07:54:53;;;;;;;8.57;5.07;;;24.20;96.40;;;;;;5069903;28;20422;-38
2021/06/10 07:57:19;;;;;;;5.53;5.03;;;24.40;96.50;;;;;;5088075;28;20180;-38
2021/06/10 07:59:46;;;;;;;5.83;5.33;;;24.30;96.60;;;;;;5086855;28;20197;-38
2021/06/10 08:02:12;;;;;;;5.10;4.67;;;24.30;96.20;;;;;;5063919;28;20197;-38
2021/06/10 08:04:38;;;;;;;7.23;5.47;;;24.30;96.60;;;;;;5085295;28;20418;-38
2021/06/10 08:07:04;;;;;;;6.60;5.00;;;24.10;95.10;;;;;;5088167;28;20669;-39
2021/06/10 08:09:32;;;;;;;6.40;4.47;;;24.00;96.00;;;;;;5087438;28;20193;-38
2021/06/10 08:11:59;;;;;;;5.37;4.97;;;24.00;96.60;;;;;;5088130;28;20554;-38
2021/06/10 08:14:26;;;;;;;5.50;5.00;;;23.90;97.20;;;;;;5087861;28;20922;-38
2021/06/10 08:16:52;;;;;;;6.00;5.40;;;23.90;97.40;;;;;;5076015;28;20579;-38
2021/06/10 08:19:17;;;;;;;6.00;4.87;;;23.90;96.80;;;;;;5085425;28;20560;-38
2021/06/10 08:21:43;;;;;;;5.30;4.80;;;23.80;96.60;;;;;;5084042;28;20411;-38
2021/06/10 08:24:11;;;;;;;4.90;4.30;;;23.80;97.20;;;;;;5087337;28;20199;-38
2021/06/10 08:26:37;;;;;;;6.47;5.00;;;23.70;97.40;;;;;;5087617;28;20180;-38
2021/06/10 08:29:02;;;;;;;4.97;4.53;;;23.80;97.10;;;;;;5087007;28;20490;-38
2021/06/10 08:31:28;;;;;;;5.70;5.00;;;23.90;97.30;;;;;;5060904;28;20422;-38
2021/06/10 08:33:54;;;;;;;4.83;4.43;;;24.00;96.90;;;;;;5085866;28;20185;-38
2021/06/10 08:36:21;;;;;;;6.60;5.90;;;24.10;96.70;;;;;;5085652;28;20197;-38
2021/06/10 08:38:47;;;;;;;6.13;5.37;;;24.00;95.70;;;;;;5068818;28;20917;-38
2021/06/10 08:41:13;;;;;;;5.77;4.93;;;24.10;96.50;;;;;;5067256;28;20418;-38
2021/06/10 08:43:39;;;;;;;6.07;5.50;;;24.30;96.80;;;;;;5087406;28;20482;-38
2021/06/10 08:46:08;;;;;;;4.73;4.33;;;24.40;96.10;;;;;;5064689;28;20750;-38
2021/06/10 08:48:37;;;;;;;4.83;4.43;;;24.50;95.70;;;;;;5085560;28;20402;-38
2021/06/10 08:51:04;;;;;;;4.97;4.57;;;24.50;95.20;;;;;;5068724;28;20402;-38
2021/06/10 08:53:30;;;;;;;4.87;4.43;;;24.70;95.50;;;;;;5087631;28;20426;-39
2021/06/10 08:55:57;;;;;;;4.40;4.00;;;24.70;95.20;;;;;;5087157;28;20421;-38
2021/06/10 08:58:24;;;;;;;4.90;4.40;;;24.80;95.60;;;;;;5087779;28;20254;-38
2021/06/10 09:00:50;;;;;;;6.10;5.47;;;25.00;95.50;;;;;;5081633;28;20561;-38
2021/06/10 09:03:31;;;;;;;5.57;5.07;;;25.10;94.20;;;;;;5074999;28;20516;-38
2021/06/10 09:06:12;;;;;;;5.80;4.80;;;25.20;94.10;;;;;;5055336;28;20433;-38
2021/06/10 09:08:42;;;;;;;4.63;4.03;;;25.30;94.70;;;;;;5086296;28;20497;-38
2021/06/10 09:11:15;;;;;;;5.27;4.80;;;25.40;94.60;;;;;;5048966;28;20576;-38
2021/06/10 09:13:43;;;;;;;5.67;4.40;;;25.40;94.50;;;;;;5083719;28;20419;-38
2021/06/10 09:16:29;;;;;;;5.20;4.70;;;25.50;93.50;;;;;;5077718;28;20948;-38
2021/06/10 09:19:05;;;;;;;6.97;4.47;;;25.50;92.10;;;;;;5073828;28;20467;-38
2021/06/10 09:21:46;;;;;;;6.30;4.87;;;25.50;92.50;;;;;;5085268;28;20421;-38
2021/06/10 09:24:22;;;;;;;4.67;4.27;;;25.60;93.90;;;;;;5086729;28;20414;-38
2021/06/10 09:27:16;;;;;;;5.30;4.47;;;25.70;92.80;;;;;;5086779;28;20506;-38
2021/06/10 09:29:50;;;;;;;4.90;4.40;;;25.80;92.40;;;;;;5083162;28;20418;-39
2021/06/10 09:32:24;;;;;;;4.87;4.47;;;25.80;92.70;;;;;;5079077;28;20446;-38
2021/06/10 09:35:04;;;;;;;8.77;4.83;;;25.90;93.30;;;;;;5082091;28;20415;-38
2021/06/10 09:37:42;;;;;;;7.10;5.10;;;26.10;93.30;;;;;;5086464;28;20571;-39
2021/06/10 09:40:12;;;;;;;4.50;4.10;;;26.20;92.70;;;;;;5084464;28;20449;-38
2021/06/10 09:42:40;;;;;;;6.97;5.00;;;26.40;93.20;;;;;;5086121;28;20917;-38
2021/06/10 09:45:09;;;;;;;5.10;4.60;;;26.40;92.60;;;;;;5086756;28;20418;-38
2021/06/10 09:47:34;;;;;;;5.30;4.90;;;26.40;92.20;;;;;;5074149;28;20491;-38
2021/06/10 09:50:20;;;;;;;5.70;5.23;;;26.40;92.80;;;;;;5077337;28;21132;-38
2021/06/10 09:52:58;;;;;;;5.47;4.97;;;26.40;91.00;;;;;;5086302;28;20206;-39
2021/06/10 09:55:32;;;;;;;6.00;5.10;;;26.30;90.90;;;;;;5086450;28;20518;-38
2021/06/10 09:58:22;;;;;;;5.80;5.20;;;26.20;92.10;;;;;;5086258;28;20471;-38
2021/06/10 10:00:48;;;;;;;7.30;4.47;;;26.30;92.10;;;;;;5084500;28;20430;-38
2021/06/10 10:03:42;;;;;;;4.40;4.00;;;26.30;92.00;;;;;;5082222;28;20873;-38
2021/06/10 10:06:17;;;;;;;5.60;3.80;;;26.40;91.70;;;;;;5078661;28;20414;-39
2021/06/10 10:08:46;;;;;;;3.90;3.60;;;26.30;91.40;;;;;;5068204;28;20414;-38
2021/06/10 10:11:14;;;;;;;4.40;4.00;;;26.10;91.60;;;;;;5086371;28;20429;-38
2021/06/10 10:13:40;;;;;;;5.40;3.60;;;26.20;92.30;;;;;;5086173;28;20415;-38
2021/06/10 10:16:06;;;;;;;4.23;3.73;;;26.20;92.30;;;;;;5085109;28;20976;-38
2021/06/10 10:18:32;;;;;;;5.17;3.93;;;26.20;91.70;;;;;;5079210;28;20920;-38
2021/06/10 10:21:00;;;;;;;4.20;3.80;;;26.20;91.50;;;;;;5083315;28;20422;-38
2021/06/10 10:23:26;;;;;;;4.10;3.70;;;26.00;90.50;;;;;;5085960;28;20498;-38
2021/06/10 10:25:56;;;;;;;3.83;3.50;;;25.90;91.70;;;;;;5085832;28;20442;-38
2021/06/10 10:28:22;;;;;;;5.80;3.90;;;25.90;91.90;;;;;;5086117;28;20427;-38
2021/06/10 10:30:47;;;;;;;4.10;3.80;;;26.00;92.10;;;;;;5085671;28;20410;-38
2021/06/10 10:33:18;;;;;;;4.47;3.77;;;26.00;91.80;;;;;;5058838;28;20436;-38
2021/06/10 10:35:57;;;;;;;3.87;3.57;;;26.10;92.20;;;;;;5078037;28;20196;-38
2021/06/10 10:38:56;;;;;;;4.80;3.90;;;26.20;91.20;;;;;;5072813;28;20430;-38
2021/06/10 10:41:22;;;;;;;4.50;3.53;;;26.10;90.20;;;;;;5084100;28;20426;-38
2021/06/10 10:43:48;;;;;;;3.53;3.30;;;26.10;90.50;;;;;;5068032;28;20445;-38
2021/06/10 10:46:21;;;;;;;4.63;3.93;;;26.00;91.20;;;;;;5049277;28;20260;-38
2021/06/10 10:48:48;;;;;;;4.50;3.80;;;25.90;90.90;;;;;;5059115;28;20525;-38
2021/06/10 10:51:25;;;;;;;4.17;3.60;;;25.90;91.50;;;;;;5083315;28;20418;-38
2021/06/10 10:53:59;;;;;;;4.33;3.97;;;25.90;91.80;;;;;;5067863;28;20410;-38
2021/06/10 10:56:53;;;;;;;4.47;4.07;;;26.10;91.80;;;;;;5085615;28;20417;-39
2021/06/10 10:59:20;;;;;;;5.03;3.87;;;26.20;90.00;;;;;;5057610;28;20426;-38
2021/06/10 11:02:06;;;;;;;4.00;3.70;;;26.20;90.20;;;;;;5084524;28;20922;-38
2021/06/10 11:05:00;;;;;;;4.23;3.80;;;26.40;90.50;;;;;;5088963;28;20446;-38
2021/06/10 11:07:35;;;;;;;4.07;3.77;;;26.40;90.00;;;;;;5089000;28;20913;-38
2021/06/10 11:10:02;;;;;;;4.10;3.80;;;26.50;88.70;;;;;;5088429;28;20917;-38
2021/06/10 11:12:53;;;;;;;5.47;5.07;;;26.50;87.80;;;;;;5089052;28;20453;-38
2021/06/10 11:15:33;;;;;;;5.03;4.57;;;26.40;88.80;;;;;;5089075;28;20526;-38
2021/06/10 11:18:02;;;;;;;6.17;4.70;;;26.50;90.40;;;;;;5076014;28;20453;-38
2021/06/10 11:20:37;;;;;;;6.63;4.47;;;26.50;90.70;;;;;;5062142;28;20455;-38
2021/06/10 11:23:13;;;;;;;5.03;4.03;;;26.60;89.40;;;;;;5082378;28;20479;-38
2021/06/10 11:25:41;;;;;;;4.70;4.20;;;26.70;90.00;;;;;;5089086;28;20429;-38
2021/06/10 11:28:11;;;;;;;5.27;4.80;;;26.80;86.40;;;;;;5088708;28;20437;-38
2021/06/10 11:30:39;;;;;;;4.90;3.93;;;26.80;85.50;;;;;;5088485;28;20419;-38
2021/06/10 11:33:17;;;;;;;4.33;4.03;;;26.80;86.90;;;;;;5084389;28;20438;-38
2021/06/10 11:35:49;;;;;;;4.33;4.00;;;26.90;84.90;;;;;;5079448;28;20410;-38
2021/06/10 11:38:24;;;;;;;4.13;3.80;;;26.90;86.60;;;;;;5068633;28;20501;-38
2021/06/10 11:40:58;;;;;;;5.37;3.83;;;27.00;87.40;;;;;;5069322;28;20471;-38
2021/06/10 11:43:25;;;;;;;5.00;4.60;;;27.00;86.30;;;;;;5075316;28;20454;-38
2021/06/10 11:46:01;;;;;;;4.90;4.37;;;27.00;84.10;;;;;;5088365;28;20411;-38
2021/06/10 11:48:46;;;;;;;4.13;3.83;;;27.00;84.90;;;;;;5080875;28;20517;-38
2021/06/10 11:51:26;;;;;;;4.30;4.00;;;27.10;85.70;;;;;;5086699;28;20498;-38
2021/06/10 11:53:55;;;;;;;5.47;5.00;;;27.10;85.40;;;;;;5088363;28;20426;-38
2021/06/10 11:56:28;;;;;;;5.77;4.77;;;27.30;88.20;;;;;;5088061;28;20410;-38
2021/06/10 11:58:57;;;;;;;6.73;6.13;;;27.30;84.90;;;;;;5087591;28;20406;-39
2021/06/10 12:01:22;;;;;;;7.20;6.60;;;27.40;87.30;;;;;;5088056;28;20973;-38
2021/06/10 12:03:48;;;;;;;6.83;6.33;;;27.50;89.10;;;;;;5080845;28;20469;-38
2021/06/10 12:06:16;;;;;;;5.73;5.23;;;27.60;89.00;;;;;;5084093;28;20440;-39
2021/06/10 12:08:43;;;;;;;5.43;5.03;;;27.60;88.80;;;;;;5087426;28;20184;-38
2021/06/10 12:11:15;;;;;;;5.57;5.07;;;27.60;87.50;;;;;;5086861;28;20422;-38
2021/06/10 12:13:43;;;;;;;9.53;5.40;;;27.60;85.70;;;;;;5088134;28;20518;-38
2021/06/10 12:16:11;;;;;;;5.67;5.17;;;27.60;84.70;;;;;;5069932;28;20416;-38
2021/06/10 12:18:40;;;;;;;5.13;4.73;;;27.30;84.50;;;;;;5082742;28;20801;-38
2021/06/10 12:21:11;;;;;;;5.30;4.90;;;27.00;83.10;;;;;;5081493;28;20446;-38
2021/06/10 12:23:42;;;;;;;5.80;5.27;;;26.90;88.20;;;;;;5069063;28;20465;-38
2021/06/10 12:26:17;;;;;;;6.40;5.80;;;27.00;88.70;;;;;;5087447;28;20507;-38
2021/06/10 12:28:53;;;;;;;5.70;5.10;;;27.10;88.00;;;;;;5074222;28;20475;-38
2021/06/10 12:31:24;;;;;;;6.43;5.80;;;27.20;88.50;;;;;;5087600;28;21072;-38
2021/06/10 12:33:52;;;;;;;5.73;5.23;;;27.10;85.40;;;;;;5064280;28;20434;-38
2021/06/10 12:36:23;;;;;;;5.70;5.00;;;27.00;83.40;;;;;;5083978;28;20626;-38
2021/06/10 12:38:59;;;;;;;6.40;5.90;;;27.00;86.90;;;;;;5069262;28;20469;-38
2021/06/10 12:41:36;;;;;;;5.77;5.23;;;27.00;85.90;;;;;;5085683;28;21041;-38
2021/06/10 12:44:14;;;;;;;5.60;5.00;;;27.00;85.20;;;;;;5087450;28;20418;-38